Rochdale, Massachusetts
Current Conditions -  °F | °C
As of 3:54 AM on Saturday 22 Nov 2014 (Local Time) from KORH Reporting Station
Clear Clear  
Wind Chill:   Ceiling: Unl
Heat Index: 19°   Visibility: 10mi
Dew Point:   Wind: 10mph
Humidity: 65%   Direction: 250°WSW
Pressure: 30.36"   Gusts: NA
Location:  42.19°N, 71.91°W
Report Text: KORH 220854Z AUTO 25009KT 10SM CLR M07/M13 A3036 RMK AO2 SLP296 T10721128 58002
Loading
Personal Weather Stations






























Interactive Weather Map New forecast layout! Learn more

10-Day Weather Forecast

Advertisements
Track Severe Weather on mobile